Time;durP1;ratioP1;P1;durP2;ratioP2;P2;SDS_P1;SDS_P2;PMS_P1;PMS_P2;Temp;Humidity;BMP_temperature;BMP_pressure;BME280_temperature;BME280_humidity;BME280_pressure;Samples;Min_cycle;Max_cycle;Signal;HPM_P1;HPM_P2
2024/01/29 00:01:28;;;;;;;4.23;2.07;;;10.30;66.40;;;;;;5031111;28;20179;-67
2024/01/29 00:03:53;;;;;;;2.17;1.97;;;10.30;66.30;;;;;;5032018;28;20185;-65
2024/01/29 00:06:19;;;;;;;4.17;2.20;;;10.30;67.30;;;;;;5029518;28;20178;-70
2024/01/29 00:08:45;;;;;;;2.30;1.90;;;10.30;67.40;;;;;;5031028;28;20190;-66
2024/01/29 00:11:11;;;;;;;2.57;2.00;;;10.30;67.30;;;;;;5030151;28;20181;-69
2024/01/29 00:13:36;;;;;;;2.60;2.10;;;10.30;67.70;;;;;;5032190;28;20191;-65
2024/01/29 00:16:02;;;;;;;2.30;1.97;;;10.20;67.20;;;;;;5030678;28;20435;-67
2024/01/29 00:18:28;;;;;;;2.90;2.00;;;10.30;67.70;;;;;;5034424;28;20231;-66
2024/01/29 00:20:57;;;;;;;2.00;1.80;;;10.30;68.10;;;;;;5036736;28;20911;-68
2024/01/29 00:23:23;;;;;;;3.10;2.13;;;10.30;67.70;;;;;;5034401;28;20336;-68
2024/01/29 00:25:48;;;;;;;4.43;2.50;;;10.30;67.70;;;;;;5035456;28;20524;-68
2024/01/29 00:28:14;;;;;;;2.80;2.40;;;10.30;67.80;;;;;;5035085;28;20435;-67
2024/01/29 00:30:40;;;;;;;2.50;2.30;;;10.30;68.40;;;;;;5035187;28;20214;-64
2024/01/29 00:33:05;;;;;;;2.70;2.20;;;10.30;68.40;;;;;;5034663;28;20190;-67
2024/01/29 00:35:31;;;;;;;2.37;2.17;;;10.30;68.30;;;;;;5034743;28;20193;-67
2024/01/29 00:37:57;;;;;;;4.30;1.93;;;10.30;68.30;;;;;;5035212;28;20198;-66
2024/01/29 00:40:24;;;;;;;2.30;2.10;;;10.30;68.30;;;;;;5034173;28;20190;-69
2024/01/29 00:42:50;;;;;;;4.00;2.40;;;10.30;68.30;;;;;;5036316;28;20182;-67
2024/01/29 00:45:16;;;;;;;2.03;1.83;;;10.30;67.90;;;;;;5033019;28;20527;-66
2024/01/29 00:47:41;;;;;;;2.33;1.80;;;10.30;68.40;;;;;;5035695;28;21219;-67
2024/01/29 00:50:08;;;;;;;3.13;2.30;;;10.30;68.40;;;;;;5036236;28;20206;-66
2024/01/29 00:52:34;;;;;;;2.87;2.00;;;10.30;68.70;;;;;;5035680;28;20216;-66
2024/01/29 00:54:59;;;;;;;3.00;2.20;;;10.20;68.70;;;;;;5036099;28;20527;-69
2024/01/29 00:57:25;;;;;;;2.77;2.40;;;10.20;68.40;;;;;;5034346;28;20190;-67
2024/01/29 00:59:51;;;;;;;2.00;1.80;;;10.20;68.80;;;;;;5035764;28;20723;-69
2024/01/29 01:02:17;;;;;;;2.03;1.93;;;10.20;69.10;;;;;;5034108;28;20186;-67
2024/01/29 01:04:42;;;;;;;2.50;1.97;;;10.20;69.30;;;;;;5036491;28;20428;-68
2024/01/29 01:07:08;;;;;;;2.73;2.07;;;10.20;69.50;;;;;;5034588;28;20187;-68
2024/01/29 01:09:34;;;;;;;2.10;1.90;;;10.20;70.30;;;;;;5035181;28;20732;-68
2024/01/29 01:11:59;;;;;;;3.30;1.93;;;10.10;70.00;;;;;;5035368;28;20190;-67
2024/01/29 01:14:25;;;;;;;3.67;2.50;;;10.10;70.60;;;;;;5033977;28;20181;-65
2024/01/29 01:16:51;;;;;;;2.50;2.07;;;10.10;71.10;;;;;;5034336;28;20224;-70
2024/01/29 01:19:16;;;;;;;2.20;1.97;;;10.10;71.50;;;;;;5035063;28;20998;-66
2024/01/29 01:21:42;;;;;;;2.90;2.60;;;10.10;71.70;;;;;;5035086;28;20452;-65
2024/01/29 01:24:08;;;;;;;2.87;2.10;;;10.00;71.70;;;;;;5034769;28;20193;-70
2024/01/29 01:26:35;;;;;;;3.67;3.00;;;10.10;72.00;;;;;;5034230;28;20191;-67
2024/01/29 01:29:00;;;;;;;2.67;2.43;;;10.10;72.30;;;;;;5033841;28;20684;-67
2024/01/29 01:31:26;;;;;;;2.80;2.30;;;10.10;72.20;;;;;;5033784;28;20423;-68
2024/01/29 01:33:52;;;;;;;2.77;2.33;;;10.10;72.60;;;;;;5035346;28;20542;-68
2024/01/29 01:36:17;;;;;;;3.23;2.47;;;10.10;73.20;;;;;;5034063;28;20196;-69
2024/01/29 01:38:43;;;;;;;2.57;2.00;;;10.10;73.30;;;;;;5035414;28;20185;-67
2024/01/29 01:41:09;;;;;;;2.40;2.20;;;10.10;73.60;;;;;;5034823;28;20188;-69
2024/01/29 01:43:35;;;;;;;3.37;2.50;;;10.10;73.80;;;;;;5033882;28;20195;-66
2024/01/29 01:46:15;;;;;;;2.90;2.43;;;10.10;74.10;;;;;;5034538;28;20432;-67
2024/01/29 01:48:41;;;;;;;2.80;1.93;;;10.10;74.20;;;;;;5035361;28;20570;-68
2024/01/29 01:51:07;;;;;;;2.77;2.40;;;10.10;73.90;;;;;;5035595;28;20433;-66
2024/01/29 01:53:36;;;;;;;3.07;2.00;;;10.10;74.20;;;;;;5035963;28;20213;-67
2024/01/29 01:56:03;;;;;;;2.53;2.33;;;10.10;74.30;;;;;;5034965;28;20420;-68
2024/01/29 01:58:30;;;;;;;4.03;2.67;;;10.10;74.90;;;;;;5035642;28;21284;-68
2024/01/29 02:00:56;;;;;;;3.37;2.30;;;10.10;75.30;;;;;;5035058;28;20436;-67
2024/01/29 02:03:22;;;;;;;2.87;2.17;;;10.10;75.10;;;;;;5034429;28;20542;-64
2024/01/29 02:05:48;;;;;;;4.67;2.10;;;10.10;75.00;;;;;;5035850;28;21246;-65
2024/01/29 02:08:16;;;;;;;2.43;1.97;;;10.10;75.70;;;;;;5035434;28;20239;-64
2024/01/29 02:10:42;;;;;;;5.03;2.40;;;10.00;75.70;;;;;;5034008;28;20550;-66
2024/01/29 02:13:15;;;;;;;2.53;2.33;;;10.00;76.30;;;;;;5033869;28;20440;-66
2024/01/29 02:15:44;;;;;;;3.03;2.40;;;10.00;76.80;;;;;;5035326;28;20967;-69
2024/01/29 02:18:09;;;;;;;2.67;2.00;;;10.00;76.90;;;;;;5033490;28;20532;-66
2024/01/29 02:20:35;;;;;;;2.30;2.00;;;10.00;78.00;;;;;;5035533;28;20438;-67
2024/01/29 02:23:02;;;;;;;2.80;2.60;;;10.00;77.30;;;;;;5035100;28;20217;-71
2024/01/29 02:25:27;;;;;;;2.50;2.30;;;9.90;79.10;;;;;;5034179;28;20214;-68
2024/01/29 02:27:53;;;;;;;3.33;2.50;;;9.90;79.30;;;;;;5035196;28;20463;-69
2024/01/29 02:30:19;;;;;;;2.30;2.10;;;9.90;80.50;;;;;;5034518;28;20229;-69
2024/01/29 02:32:44;;;;;;;3.70;2.30;;;9.90;79.80;;;;;;5034378;28;20682;-67
2024/01/29 02:35:10;;;;;;;3.80;2.50;;;9.90;80.00;;;;;;5034096;28;20186;-70
2024/01/29 02:37:36;;;;;;;3.43;2.73;;;9.90;80.20;;;;;;5035413;28;20354;-70
2024/01/29 02:40:02;;;;;;;2.90;2.20;;;9.90;80.30;;;;;;5034744;28;20281;-69
2024/01/29 02:42:28;;;;;;;4.27;2.33;;;9.90;80.40;;;;;;5034170;28;20269;-68
2024/01/29 02:44:54;;;;;;;2.70;2.30;;;9.90;81.00;;;;;;5032930;28;20512;-69
2024/01/29 02:47:19;;;;;;;2.40;1.93;;;9.80;81.20;;;;;;5030642;28;20730;-71
2024/01/29 02:49:45;;;;;;;2.97;2.00;;;9.80;81.30;;;;;;5030212;28;20267;-66
2024/01/29 02:52:11;;;;;;;3.90;2.67;;;9.80;81.40;;;;;;5034253;28;20188;-67
2024/01/29 02:54:37;;;;;;;2.60;2.40;;;9.80;81.40;;;;;;5034147;28;20194;-70
2024/01/29 02:57:03;;;;;;;2.40;2.20;;;9.90;81.60;;;;;;5032298;28;20547;-68
2024/01/29 02:59:29;;;;;;;2.40;2.03;;;9.80;81.90;;;;;;5034473;28;20544;-70
2024/01/29 03:01:55;;;;;;;3.60;2.23;;;9.80;82.30;;;;;;5034737;28;20432;-66
2024/01/29 03:04:21;;;;;;;2.93;2.40;;;9.70;82.50;;;;;;5033792;28;20199;-68
2024/01/29 03:06:47;;;;;;;2.33;2.13;;;9.80;82.70;;;;;;5033787;28;20950;-70
2024/01/29 03:09:14;;;;;;;2.63;2.13;;;9.80;82.70;;;;;;5033993;28;20720;-67
2024/01/29 03:11:40;;;;;;;4.07;2.30;;;9.80;82.40;;;;;;5034389;28;20281;-66
2024/01/29 03:14:06;;;;;;;3.23;2.43;;;9.80;82.80;;;;;;5034148;28;20436;-66
2024/01/29 03:16:32;;;;;;;3.30;2.30;;;9.80;83.00;;;;;;5032467;28;20424;-67
2024/01/29 03:18:58;;;;;;;4.07;2.43;;;9.80;83.00;;;;;;5033905;28;20190;-69
2024/01/29 03:21:24;;;;;;;2.53;2.20;;;9.80;83.20;;;;;;5033617;28;20700;-68
2024/01/29 03:23:50;;;;;;;3.63;3.33;;;9.70;83.60;;;;;;5034486;28;20441;-67
2024/01/29 03:26:15;;;;;;;3.37;2.60;;;9.70;83.90;;;;;;5033303;28;20878;-65
2024/01/29 03:28:41;;;;;;;2.50;2.30;;;9.70;83.60;;;;;;5034191;28;20535;-69
2024/01/29 03:31:07;;;;;;;2.80;2.43;;;9.70;84.10;;;;;;5033045;28;20523;-67
2024/01/29 03:33:33;;;;;;;3.03;2.10;;;9.70;84.50;;;;;;5033896;28;20188;-66
2024/01/29 03:36:03;;;;;;;2.07;1.93;;;9.70;85.10;;;;;;5033654;28;20193;-69
2024/01/29 03:38:29;;;;;;;2.40;2.20;;;9.70;85.00;;;;;;5033852;28;20197;-69
2024/01/29 03:40:54;;;;;;;3.03;2.73;;;9.70;85.50;;;;;;5033952;28;20794;-66
2024/01/29 03:43:20;;;;;;;3.13;2.50;;;9.70;86.70;;;;;;5033462;28;20194;-68
2024/01/29 03:45:47;;;;;;;4.20;2.57;;;9.70;86.30;;;;;;5033844;28;20276;-67
2024/01/29 03:48:13;;;;;;;3.20;2.63;;;9.60;86.50;;;;;;5032105;28;20204;-66
2024/01/29 03:50:38;;;;;;;3.60;2.70;;;9.60;86.30;;;;;;5033737;28;20468;-68
2024/01/29 03:53:04;;;;;;;2.60;2.40;;;9.70;86.50;;;;;;5032592;28;20443;-66
2024/01/29 03:55:30;;;;;;;3.20;2.40;;;9.70;86.60;;;;;;5032221;28;20314;-71
2024/01/29 03:57:55;;;;;;;2.53;2.33;;;9.70;86.90;;;;;;5033621;28;20192;-70
2024/01/29 04:00:23;;;;;;;3.80;2.30;;;9.70;87.10;;;;;;5031695;28;20194;-65
2024/01/29 04:02:52;;;;;;;3.67;2.50;;;9.70;87.20;;;;;;5033550;28;20277;-68
2024/01/29 04:05:18;;;;;;;2.47;2.27;;;9.70;87.60;;;;;;5031677;28;20440;-68
2024/01/29 04:07:45;;;;;;;3.67;2.50;;;9.70;87.80;;;;;;5033665;28;20471;-68
2024/01/29 04:10:11;;;;;;;3.13;2.83;;;9.70;88.10;;;;;;5032702;28;20538;-66
2024/01/29 04:12:37;;;;;;;3.07;2.50;;;9.60;88.90;;;;;;5033851;28;20433;-66
2024/01/29 04:15:03;;;;;;;3.50;2.40;;;9.60;89.50;;;;;;5032510;28;21397;-67
2024/01/29 04:17:29;;;;;;;4.33;2.33;;;9.50;90.00;;;;;;5031645;28;20425;-70
2024/01/29 04:19:55;;;;;;;3.37;2.60;;;9.50;90.10;;;;;;5033294;28;20443;-67
2024/01/29 04:22:21;;;;;;;4.40;2.77;;;9.50;90.50;;;;;;5032932;28;20201;-64
2024/01/29 04:24:47;;;;;;;5.13;3.00;;;9.40;90.90;;;;;;5034061;28;20970;-68
2024/01/29 04:27:13;;;;;;;3.40;2.70;;;9.30;91.30;;;;;;5032381;28;20182;-69
2024/01/29 04:29:39;;;;;;;2.90;2.60;;;9.30;91.50;;;;;;5032831;28;20469;-67
2024/01/29 04:32:05;;;;;;;3.70;2.30;;;9.30;91.70;;;;;;5032887;28;20186;-68
2024/01/29 04:34:31;;;;;;;2.60;2.40;;;9.20;91.70;;;;;;5033384;28;20440;-66
2024/01/29 04:36:57;;;;;;;3.40;2.67;;;9.30;91.80;;;;;;5031805;28;20846;-68
2024/01/29 04:39:22;;;;;;;4.10;2.70;;;9.20;91.90;;;;;;5031558;28;20664;-68
2024/01/29 04:41:48;;;;;;;3.13;2.70;;;9.30;91.90;;;;;;5032766;28;20209;-68
2024/01/29 04:44:17;;;;;;;2.77;2.40;;;9.30;92.00;;;;;;5032512;28;20617;-68
2024/01/29 04:46:43;;;;;;;2.63;2.40;;;9.30;92.20;;;;;;5032817;28;20676;-69
2024/01/29 04:49:08;;;;;;;4.33;2.63;;;9.20;92.30;;;;;;5032094;28;20461;-66
2024/01/29 04:51:34;;;;;;;3.17;2.30;;;9.20;92.60;;;;;;5033039;28;20260;-66
2024/01/29 04:54:00;;;;;;;2.70;2.50;;;9.10;92.90;;;;;;5032873;28;20179;-67
2024/01/29 04:56:25;;;;;;;3.30;2.57;;;9.10;93.00;;;;;;5032871;28;20259;-65
2024/01/29 04:58:51;;;;;;;3.87;2.70;;;9.10;93.10;;;;;;5032997;28;20187;-66
2024/01/29 05:01:17;;;;;;;3.60;2.67;;;9.10;93.10;;;;;;5032713;28;20652;-65
2024/01/29 05:03:43;;;;;;;3.23;2.70;;;9.10;93.40;;;;;;5035343;28;20189;-67
2024/01/29 05:06:10;;;;;;;3.97;2.80;;;9.00;93.80;;;;;;5035461;28;20190;-70
2024/01/29 05:08:35;;;;;;;2.60;2.20;;;9.10;94.10;;;;;;5036817;28;20460;-68
2024/01/29 05:11:01;;;;;;;4.47;2.70;;;9.10;94.20;;;;;;5035787;28;20603;-66
2024/01/29 05:13:27;;;;;;;3.10;2.80;;;9.00;94.10;;;;;;5037023;28;20186;-66
2024/01/29 05:15:52;;;;;;;2.77;2.57;;;9.10;94.40;;;;;;5035795;28;20182;-67
2024/01/29 05:18:18;;;;;;;3.60;2.70;;;9.00;94.60;;;;;;5035289;28;20529;-70
2024/01/29 05:20:44;;;;;;;2.43;2.23;;;9.00;94.70;;;;;;5036058;28;20249;-67
2024/01/29 05:23:09;;;;;;;2.60;2.40;;;9.10;94.90;;;;;;5036218;28;20193;-68
2024/01/29 05:25:35;;;;;;;5.90;2.63;;;9.00;95.30;;;;;;5036348;28;20643;-65
2024/01/29 05:28:01;;;;;;;2.83;2.53;;;8.90;95.50;;;;;;5035998;28;20240;-65
2024/01/29 05:30:27;;;;;;;4.30;2.90;;;8.90;95.60;;;;;;5036699;28;20206;-66
2024/01/29 05:32:52;;;;;;;3.63;2.70;;;8.80;95.90;;;;;;5036331;28;20191;-69
2024/01/29 05:35:18;;;;;;;3.43;2.80;;;8.80;96.10;;;;;;5035955;28;20225;-67
2024/01/29 05:37:44;;;;;;;3.80;3.03;;;8.90;96.10;;;;;;5035936;28;20193;-67
2024/01/29 05:40:11;;;;;;;3.27;2.67;;;8.80;96.40;;;;;;5035676;28;20194;-65
2024/01/29 05:42:37;;;;;;;3.90;3.27;;;8.80;96.80;;;;;;5036771;28;20919;-65
2024/01/29 05:45:04;;;;;;;3.13;2.83;;;8.70;97.10;;;;;;5035072;28;21018;-66
2024/01/29 05:47:29;;;;;;;3.43;3.13;;;8.60;97.20;;;;;;5032255;28;20463;-64
2024/01/29 05:49:55;;;;;;;4.27;2.80;;;8.60;97.70;;;;;;5034035;28;20463;-67
2024/01/29 05:52:21;;;;;;;3.53;3.20;;;8.60;98.00;;;;;;5033404;28;20187;-66
2024/01/29 05:54:47;;;;;;;3.60;2.73;;;8.50;98.20;;;;;;5031645;28;20181;-70
2024/01/29 05:57:16;;;;;;;6.60;3.10;;;8.50;98.50;;;;;;5033104;28;20436;-68
2024/01/29 05:59:43;;;;;;;3.60;2.83;;;8.50;98.70;;;;;;5035022;28;20193;-65
2024/01/29 06:02:08;;;;;;;3.67;3.10;;;8.50;98.60;;;;;;5035351;28;20825;-67
2024/01/29 06:04:34;;;;;;;3.73;3.00;;;8.50;98.60;;;;;;5034913;28;20454;-68
2024/01/29 06:07:00;;;;;;;4.60;3.13;;;8.60;98.60;;;;;;5033790;28;20190;-69
2024/01/29 06:09:25;;;;;;;3.70;2.77;;;8.60;98.70;;;;;;5035671;28;20248;-68
2024/01/29 06:11:53;;;;;;;3.73;3.27;;;8.60;98.80;;;;;;5035427;28;20555;-69
2024/01/29 06:14:19;;;;;;;3.50;3.10;;;8.50;98.90;;;;;;5035251;28;20182;-67
2024/01/29 06:16:45;;;;;;;4.00;2.93;;;8.60;99.00;;;;;;5034839;28;21022;-66
2024/01/29 06:19:15;;;;;;;3.83;3.37;;;8.60;99.20;;;;;;5034983;28;20424;-69
2024/01/29 06:21:43;;;;;;;3.20;2.90;;;8.50;99.40;;;;;;5034706;28;20785;-65
2024/01/29 06:24:08;;;;;;;4.77;3.60;;;8.50;99.50;;;;;;5034930;28;20985;-68
2024/01/29 06:26:34;;;;;;;4.90;2.87;;;8.50;99.70;;;;;;5033996;28;20432;-67
2024/01/29 06:29:00;;;;;;;3.10;2.90;;;8.50;99.80;;;;;;5034557;28;20189;-67
2024/01/29 06:31:26;;;;;;;3.53;2.97;;;8.50;99.80;;;;;;5033736;28;20420;-65
2024/01/29 06:33:53;;;;;;;7.50;3.77;;;8.50;99.90;;;;;;5033695;28;20181;-69
2024/01/29 06:36:19;;;;;;;5.13;3.30;;;8.50;99.90;;;;;;5033006;28;21163;-69
2024/01/29 06:38:45;;;;;;;5.13;3.63;;;8.40;99.90;;;;;;5048782;28;21320;-67
2024/01/29 06:41:21;;;;;;;4.20;3.10;;;8.40;99.90;;;;;;5034982;28;20516;-66
2024/01/29 06:43:47;;;;;;;4.27;3.33;;;8.40;99.90;;;;;;5034853;28;20435;-68
2024/01/29 06:46:13;;;;;;;4.27;3.27;;;8.40;99.90;;;;;;5034443;28;20469;-67
2024/01/29 06:48:39;;;;;;;4.73;3.20;;;8.50;99.90;;;;;;5034958;28;20534;-66
2024/01/29 06:51:04;;;;;;;4.60;3.60;;;8.40;99.90;;;;;;5030432;28;20232;-68
2024/01/29 06:53:33;;;;;;;6.00;5.40;;;8.40;99.90;;;;;;5034829;28;20190;-68
2024/01/29 06:55:59;;;;;;;5.60;3.37;;;8.40;99.90;;;;;;5034329;28;20178;-70
2024/01/29 06:58:25;;;;;;;3.70;3.10;;;8.30;99.90;;;;;;5031071;28;20445;-69
2024/01/29 07:00:51;;;;;;;4.20;3.80;;;8.30;99.90;;;;;;5032125;28;20935;-68
2024/01/29 07:03:19;;;;;;;9.93;4.07;;;8.30;99.90;;;;;;5031287;28;20435;-67
2024/01/29 07:05:49;;;;;;;4.13;3.70;;;8.40;99.90;;;;;;5032296;28;20991;-67
2024/01/29 07:08:16;;;;;;;4.50;3.20;;;8.40;99.90;;;;;;5033267;28;20424;-67
2024/01/29 07:10:42;;;;;;;5.80;2.97;;;8.40;99.90;;;;;;5027860;28;20998;-67
2024/01/29 07:13:08;;;;;;;6.73;3.50;;;8.40;99.90;;;;;;5031136;28;20435;-69
2024/01/29 07:15:34;;;;;;;4.80;3.53;;;8.40;99.90;;;;;;5029806;28;20437;-70
2024/01/29 07:17:59;;;;;;;6.23;3.50;;;8.40;99.90;;;;;;5031236;28;20269;-71
2024/01/29 07:20:27;;;;;;;4.07;3.67;;;8.50;99.90;;;;;;5030602;28;20420;-67
2024/01/29 07:22:53;;;;;;;3.97;3.50;;;8.50;99.90;;;;;;5034501;28;20205;-69
2024/01/29 07:25:19;;;;;;;4.47;3.33;;;8.40;99.90;;;;;;5034572;28;20428;-73
2024/01/29 07:27:45;;;;;;;4.60;3.50;;;8.40;99.90;;;;;;5032604;28;20210;-74
2024/01/29 07:30:11;;;;;;;5.80;3.80;;;8.50;99.90;;;;;;5034832;28;20507;-69
2024/01/29 07:32:37;;;;;;;3.33;3.00;;;8.50;99.90;;;;;;5035123;28;20236;-70
2024/01/29 07:35:03;;;;;;;5.33;4.07;;;8.60;99.90;;;;;;5033981;28;20799;-72
2024/01/29 07:37:29;;;;;;;4.80;4.30;;;8.60;99.90;;;;;;5035473;28;20683;-71
2024/01/29 07:39:56;;;;;;;4.20;3.73;;;8.60;99.90;;;;;;5033710;28;20491;-69
2024/01/29 07:42:22;;;;;;;4.47;3.20;;;8.60;99.90;;;;;;5034977;28;20426;-68
2024/01/29 07:44:48;;;;;;;7.53;3.67;;;8.60;99.90;;;;;;5034409;28;20421;-76
2024/01/29 07:47:14;;;;;;;4.30;3.60;;;8.60;99.90;;;;;;5032655;28;20441;-73
2024/01/29 07:49:40;;;;;;;5.80;3.70;;;8.70;99.90;;;;;;5031259;28;20585;-72
2024/01/29 07:52:06;;;;;;;6.00;3.80;;;8.60;99.90;;;;;;5031131;28;20434;-66
2024/01/29 07:54:32;;;;;;;5.67;3.97;;;8.60;99.90;;;;;;5032927;28;20269;-70
2024/01/29 07:56:57;;;;;;;4.90;4.33;;;8.60;99.90;;;;;;5031209;28;20216;-66
2024/01/29 07:59:23;;;;;;;4.73;4.00;;;8.60;99.90;;;;;;5034464;28;20605;-74
2024/01/29 08:01:49;;;;;;;4.00;3.30;;;8.60;99.90;;;;;;5033538;28;20191;-68
2024/01/29 08:04:15;;;;;;;5.27;3.80;;;8.60;99.90;;;;;;5034955;28;20190;-74
2024/01/29 08:06:40;;;;;;;7.47;4.50;;;8.50;99.90;;;;;;5032529;28;20437;-66
2024/01/29 08:09:06;;;;;;;4.40;3.80;;;8.50;99.90;;;;;;5034452;28;20189;-69
2024/01/29 08:11:33;;;;;;;5.30;3.87;;;8.50;99.90;;;;;;5034492;28;20260;-75
2024/01/29 08:13:59;;;;;;;4.90;3.90;;;8.50;99.90;;;;;;5034154;28;20511;-74
2024/01/29 08:16:25;;;;;;;5.10;4.60;;;8.60;99.90;;;;;;5034329;28;20515;-66
2024/01/29 08:18:51;;;;;;;5.10;4.03;;;8.80;99.90;;;;;;5033154;28;20186;-69
2024/01/29 08:21:17;;;;;;;4.67;3.93;;;8.90;99.90;;;;;;5034304;28;20439;-68
2024/01/29 08:23:43;;;;;;;5.13;4.20;;;9.00;99.90;;;;;;5033827;28;21199;-71
2024/01/29 08:26:09;;;;;;;4.27;3.87;;;9.20;99.90;;;;;;5034174;28;20906;-71
2024/01/29 08:28:35;;;;;;;4.67;4.00;;;9.30;99.90;;;;;;5034194;28;20420;-69
2024/01/29 08:31:01;;;;;;;4.77;4.27;;;9.40;99.90;;;;;;5032691;28;20218;-66
2024/01/29 08:33:30;;;;;;;4.90;3.87;;;9.40;99.90;;;;;;5033901;28;20456;-71
2024/01/29 08:35:55;;;;;;;4.30;3.90;;;9.40;99.90;;;;;;5033151;28;20522;-69
2024/01/29 08:38:22;;;;;;;4.77;4.23;;;9.60;99.90;;;;;;5035105;28;20493;-71
2024/01/29 08:40:49;;;;;;;4.53;4.03;;;9.70;99.90;;;;;;5036526;28;20191;-73
2024/01/29 08:43:14;;;;;;;4.67;4.27;;;9.80;99.90;;;;;;5038465;28;20445;-69
2024/01/29 08:45:40;;;;;;;4.17;3.50;;;9.80;99.90;;;;;;5036849;28;20483;-70
2024/01/29 08:48:06;;;;;;;5.23;4.57;;;9.90;99.90;;;;;;5035930;28;20235;-69
2024/01/29 08:50:36;;;;;;;4.53;3.80;;;10.10;99.90;;;;;;5037165;28;20205;-68
2024/01/29 08:53:03;;;;;;;4.53;4.13;;;10.40;99.90;;;;;;5036897;28;20436;-73
2024/01/29 08:55:31;;;;;;;4.53;3.50;;;10.60;99.60;;;;;;5037039;28;20820;-65
2024/01/29 08:57:57;;;;;;;5.30;3.90;;;10.70;99.40;;;;;;5067624;28;20528;-72
2024/01/29 09:00:23;;;;;;;5.23;3.90;;;10.90;99.50;;;;;;5036888;28;20518;-73
2024/01/29 09:02:49;;;;;;;5.67;4.00;;;11.10;99.40;;;;;;5036828;28;20425;-69
2024/01/29 09:05:16;;;;;;;7.03;4.27;;;11.30;99.30;;;;;;5037783;28;20468;-71
2024/01/29 09:07:41;;;;;;;4.20;3.73;;;11.50;98.50;;;;;;5066796;28;20431;-70
2024/01/29 09:10:08;;;;;;;4.97;3.87;;;11.60;98.00;;;;;;5036033;28;20463;-70
2024/01/29 09:12:33;;;;;;;5.23;4.13;;;11.60;97.70;;;;;;5036223;28;20192;-66
2024/01/29 09:14:59;;;;;;;5.30;4.40;;;11.80;97.80;;;;;;5036592;28;20785;-69
2024/01/29 09:17:25;;;;;;;4.83;4.33;;;11.90;98.00;;;;;;5036227;28;20189;-72
2024/01/29 09:19:51;;;;;;;4.40;4.00;;;12.10;97.20;;;;;;5037134;28;20186;-74
2024/01/29 09:22:18;;;;;;;5.20;4.20;;;12.10;97.00;;;;;;5036302;28;20577;-70
2024/01/29 09:24:43;;;;;;;4.70;4.30;;;12.20;97.20;;;;;;5036511;28;20519;-66
2024/01/29 09:27:10;;;;;;;5.67;4.57;;;12.20;97.00;;;;;;5036854;28;20975;-65
2024/01/29 09:29:35;;;;;;;5.00;4.43;;;12.20;96.90;;;;;;5034793;28;20289;-68
2024/01/29 09:32:01;;;;;;;5.47;4.70;;;12.20;96.80;;;;;;5035417;28;20512;-70
2024/01/29 09:34:27;;;;;;;5.60;4.57;;;12.10;96.90;;;;;;5036393;28;20178;-74
2024/01/29 09:36:54;;;;;;;4.80;4.33;;;12.00;97.20;;;;;;5036113;28;20785;-72
2024/01/29 09:39:22;;;;;;;5.70;4.60;;;12.20;97.80;;;;;;5036407;28;20503;-72
2024/01/29 09:41:49;;;;;;;9.33;3.87;;;12.30;97.60;;;;;;5035754;28;20457;-76
2024/01/29 09:44:15;;;;;;;4.67;4.27;;;12.40;97.90;;;;;;5034998;28;20420;-67
2024/01/29 09:46:42;;;;;;;4.60;4.20;;;12.60;98.00;;;;;;5034889;28;20420;-73
2024/01/29 09:49:08;;;;;;;5.43;3.80;;;12.80;97.90;;;;;;5035386;28;20214;-70
2024/01/29 09:51:34;;;;;;;5.10;3.90;;;13.10;97.80;;;;;;5034892;28;20471;-70
2024/01/29 09:54:01;;;;;;;5.20;3.90;;;13.20;97.30;;;;;;5035987;28;20436;-71
2024/01/29 09:56:27;;;;;;;6.23;3.40;;;13.20;96.90;;;;;;5034773;28;20920;-65
2024/01/29 09:58:54;;;;;;;3.93;3.53;;;13.30;97.20;;;;;;5035892;28;20425;-66
2024/01/29 10:01:21;;;;;;;6.77;4.07;;;13.50;97.00;;;;;;5035844;28;20457;-75
2024/01/29 10:03:47;;;;;;;11.70;4.30;;;13.60;96.90;;;;;;5035166;28;20424;-70
2024/01/29 10:06:13;;;;;;;9.50;4.53;;;13.80;96.70;;;;;;5035745;28;20435;-72
2024/01/29 10:08:39;;;;;;;16.83;5.00;;;14.10;96.70;;;;;;5033384;28;20495;-69
2024/01/29 10:11:07;;;;;;;4.90;4.40;;;14.30;96.40;;;;;;5036352;28;20305;-68
2024/01/29 10:13:32;;;;;;;4.80;3.73;;;14.60;95.90;;;;;;5035074;28;20429;-72
2024/01/29 10:15:58;;;;;;;4.63;3.63;;;14.90;95.60;;;;;;5035761;28;20416;-70
2024/01/29 10:18:24;;;;;;;4.80;3.43;;;15.40;94.20;;;;;;5035432;28;20182;-70
2024/01/29 10:21:04;;;;;;;5.33;3.43;;;15.80;93.60;;;;;;5034819;28;20182;-78
2024/01/29 10:23:30;;;;;;;4.50;4.10;;;16.30;92.70;;;;;;5035524;28;20189;-71
2024/01/29 10:25:57;;;;;;;4.23;3.93;;;16.80;91.30;;;;;;5035560;28;20429;-70
2024/01/29 10:28:23;;;;;;;5.20;4.10;;;17.30;90.50;;;;;;5032786;28;20951;-74
2024/01/29 10:30:50;;;;;;;4.30;3.90;;;17.80;87.80;;;;;;5030400;28;20465;-72
2024/01/29 10:33:16;;;;;;;4.10;3.70;;;18.40;87.80;;;;;;5033890;28;20535;-74
2024/01/29 10:35:42;;;;;;;5.03;4.07;;;19.10;84.40;;;;;;5033047;28;20429;-66
2024/01/29 10:38:12;;;;;;;3.60;3.20;;;19.60;80.50;;;;;;5034206;28;20433;-77
2024/01/29 10:40:37;;;;;;;5.83;4.33;;;20.10;78.40;;;;;;5034070;28;20190;-70
2024/01/29 10:43:04;;;;;;;15.03;4.00;;;20.40;73.00;;;;;;5034661;28;20433;-77
2024/01/29 10:45:37;;;;;;;6.07;4.23;;;20.40;69.80;;;;;;5034103;28;20186;-72
2024/01/29 10:48:19;;;;;;;5.27;3.87;;;20.00;68.00;;;;;;5034853;28;20433;-74
2024/01/29 10:50:47;;;;;;;8.20;4.20;;;19.40;68.40;;;;;;5034202;28;20488;-72
2024/01/29 10:53:16;;;;;;;6.93;4.30;;;18.80;70.20;;;;;;5034770;28;20444;-69
2024/01/29 10:55:52;;;;;;;10.87;4.50;;;18.40;71.90;;;;;;5034765;28;20448;-77
2024/01/29 10:58:19;;;;;;;12.33;4.83;;;18.00;73.60;;;;;;5034427;28;20424;-71
2024/01/29 11:00:45;;;;;;;6.53;3.83;;;17.90;74.50;;;;;;5033890;28;20528;-75
2024/01/29 11:03:12;;;;;;;4.07;3.77;;;17.60;75.30;;;;;;5034795;28;20791;-74
2024/01/29 11:05:49;;;;;;;4.10;3.80;;;17.20;77.20;;;;;;5033027;28;20484;-70
2024/01/29 11:08:24;;;;;;;4.50;4.10;;;16.90;79.20;;;;;;5034655;28;20439;-74
2024/01/29 11:10:50;;;;;;;4.47;4.07;;;16.70;80.60;;;;;;5033110;28;20656;-69
2024/01/29 11:13:18;;;;;;;4.23;3.83;;;16.80;80.60;;;;;;5034361;28;20429;-73
2024/01/29 11:15:44;;;;;;;3.90;3.60;;;17.20;82.10;;;;;;5033075;28;20452;-74
2024/01/29 11:18:10;;;;;;;4.63;4.17;;;18.10;78.70;;;;;;5034371;28;20421;-70
2024/01/29 11:20:39;;;;;;;5.07;4.17;;;18.20;76.70;;;;;;5033124;28;20429;-73
2024/01/29 11:23:05;;;;;;;6.67;4.20;;;17.80;76.70;;;;;;5034283;28;21214;-73
2024/01/29 11:25:32;;;;;;;5.17;4.30;;;17.40;78.80;;;;;;5032900;28;20527;-68
2024/01/29 11:28:00;;;;;;;4.83;4.30;;;17.00;81.00;;;;;;5033931;28;20965;-72
2024/01/29 11:30:26;;;;;;;4.33;3.93;;;17.00;82.50;;;;;;5048479;28;20534;-73
2024/01/29 11:33:13;;;;;;;4.40;4.00;;;16.90;82.40;;;;;;5034036;28;20435;-68
2024/01/29 11:35:39;;;;;;;5.03;4.20;;;16.70;83.40;;;;;;5031987;28;20477;-77
2024/01/29 11:38:11;;;;;;;4.67;3.60;;;16.50;84.90;;;;;;5033891;28;20425;-69
2024/01/29 11:40:43;;;;;;;4.43;4.00;;;16.30;86.80;;;;;;5025712;28;20428;-76
2024/01/29 11:43:22;;;;;;;3.57;3.27;;;16.20;88.50;;;;;;5027376;28;20899;-72
2024/01/29 11:45:52;;;;;;;3.90;3.50;;;16.40;88.60;;;;;;5032914;28;20426;-68
2024/01/29 11:48:23;;;;;;;4.40;3.70;;;16.60;88.10;;;;;;5034132;28;20531;-71
2024/01/29 11:50:52;;;;;;;4.30;3.50;;;16.80;86.40;;;;;;5032566;28;20909;-74
2024/01/29 11:53:19;;;;;;;4.80;4.00;;;17.30;86.10;;;;;;5034383;28;20429;-76
2024/01/29 11:55:46;;;;;;;4.37;3.60;;;17.90;83.50;;;;;;5017372;28;20552;-69
2024/01/29 11:58:18;;;;;;;4.60;3.87;;;18.60;83.50;;;;;;5034226;28;21114;-77
2024/01/29 12:00:45;;;;;;;6.90;4.10;;;20.10;79.70;;;;;;5032528;28;20807;-67
2024/01/29 12:03:16;;;;;;;4.13;3.73;;;21.70;73.40;;;;;;5034379;28;20431;-69
2024/01/29 12:05:42;;;;;;;5.80;4.03;;;22.70;69.50;;;;;;5032894;28;20769;-77
2024/01/29 12:08:12;;;;;;;5.47;3.90;;;23.30;64.20;;;;;;5033939;28;20440;-74
2024/01/29 12:10:38;;;;;;;4.53;4.13;;;23.20;62.00;;;;;;5031887;28;20217;-70
2024/01/29 12:13:04;;;;;;;5.50;4.00;;;22.60;60.50;;;;;;5033262;28;20433;-69
2024/01/29 12:15:29;;;;;;;5.50;3.90;;;22.10;62.20;;;;;;5033105;28;20707;-74
2024/01/29 12:17:55;;;;;;;5.80;4.50;;;22.30;63.10;;;;;;5033891;28;20190;-72
2024/01/29 12:20:21;;;;;;;4.27;3.87;;;23.10;61.60;;;;;;5033429;28;20493;-71
2024/01/29 12:22:47;;;;;;;5.03;4.10;;;23.80;59.70;;;;;;5033204;28;20622;-68
2024/01/29 12:25:13;;;;;;;4.37;3.97;;;24.10;57.80;;;;;;5033749;28;20209;-76
2024/01/29 12:27:40;;;;;;;4.30;3.90;;;24.00;56.60;;;;;;5031895;28;20943;-77
2024/01/29 12:30:13;;;;;;;5.57;4.10;;;23.60;56.80;;;;;;5033317;28;20476;-69
2024/01/29 12:32:42;;;;;;;4.50;3.83;;;23.70;57.70;;;;;;5030945;28;20444;-76
2024/01/29 12:35:25;;;;;;;4.60;4.10;;;24.10;56.40;;;;;;5033285;28;21167;-72
2024/01/29 12:37:51;;;;;;;4.40;4.00;;;23.50;55.40;;;;;;5033192;28;20454;-77
2024/01/29 12:40:17;;;;;;;4.70;4.13;;;22.40;56.10;;;;;;5032835;28;20429;-73
2024/01/29 12:42:42;;;;;;;5.53;4.40;;;21.30;57.80;;;;;;5032012;28;20189;-79
2024/01/29 12:45:08;;;;;;;4.23;3.83;;;20.30;59.80;;;;;;5033228;28;20946;-79
2024/01/29 12:47:34;;;;;;;4.20;3.90;;;19.50;63.20;;;;;;5031825;28;20950;-69
2024/01/29 12:50:00;;;;;;;4.20;3.80;;;19.00;66.60;;;;;;5033330;28;20472;-76